sensor_id;sensor_type;location;lat;lon;timestamp;P1;durP1;ratioP1;P2;durP2;ratioP2
10410;SDS011;5251;52.112;8.606;2023-12-14T00:01:12;5.32;;;4.10;;
10410;SDS011;5251;52.112;8.606;2023-12-14T00:03:38;5.85;;;4.55;;
10410;SDS011;5251;52.112;8.606;2023-12-14T00:06:07;5.47;;;4.63;;
10410;SDS011;5251;52.112;8.606;2023-12-14T00:08:33;6.57;;;4.70;;
10410;SDS011;5251;52.112;8.606;2023-12-14T00:11:03;6.63;;;4.22;;
10410;SDS011;5251;52.112;8.606;2023-12-14T00:13:29;5.57;;;4.38;;
10410;SDS011;5251;52.112;8.606;2023-12-14T00:15:55;6.68;;;4.35;;
10410;SDS011;5251;52.112;8.606;2023-12-14T00:18:21;5.03;;;4.20;;
10410;SDS011;5251;52.112;8.606;2023-12-14T00:20:46;4.28;;;3.88;;
10410;SDS011;5251;52.112;8.606;2023-12-14T00:23:13;5.43;;;4.30;;
10410;SDS011;5251;52.112;8.606;2023-12-14T00:25:39;5.90;;;5.00;;
10410;SDS011;5251;52.112;8.606;2023-12-14T00:28:04;5.45;;;4.18;;
10410;SDS011;5251;52.112;8.606;2023-12-14T00:30:30;5.00;;;4.50;;
10410;SDS011;5251;52.112;8.606;2023-12-14T00:32:55;5.70;;;4.32;;
10410;SDS011;5251;52.112;8.606;2023-12-14T00:35:21;5.20;;;4.13;;
10410;SDS011;5251;52.112;8.606;2023-12-14T00:37:47;4.47;;;4.03;;
10410;SDS011;5251;52.112;8.606;2023-12-14T00:40:12;4.65;;;4.10;;
10410;SDS011;5251;52.112;8.606;2023-12-14T00:42:38;5.05;;;4.13;;
10410;SDS011;5251;52.112;8.606;2023-12-14T00:45:04;5.93;;;4.15;;
10410;SDS011;5251;52.112;8.606;2023-12-14T00:47:29;5.28;;;4.10;;
10410;SDS011;5251;52.112;8.606;2023-12-14T00:49:55;4.90;;;4.20;;
10410;SDS011;5251;52.112;8.606;2023-12-14T00:52:21;4.43;;;4.03;;
10410;SDS011;5251;52.112;8.606;2023-12-14T00:54:46;4.72;;;3.88;;
10410;SDS011;5251;52.112;8.606;2023-12-14T00:57:12;4.60;;;4.10;;
10410;SDS011;5251;52.112;8.606;2023-12-14T00:59:37;3.80;;;3.40;;
10410;SDS011;5251;52.112;8.606;2023-12-14T01:02:03;4.28;;;3.58;;
10410;SDS011;5251;52.112;8.606;2023-12-14T01:04:29;4.15;;;3.60;;
10410;SDS011;5251;52.112;8.606;2023-12-14T01:06:54;4.93;;;4.20;;
10410;SDS011;5251;52.112;8.606;2023-12-14T01:09:20;5.72;;;3.60;;
10410;SDS011;5251;52.112;8.606;2023-12-14T01:11:45;4.25;;;3.65;;
10410;SDS011;5251;52.112;8.606;2023-12-14T01:14:11;4.20;;;3.60;;
10410;SDS011;5251;52.112;8.606;2023-12-14T01:16:37;4.60;;;3.50;;
10410;SDS011;5251;52.112;8.606;2023-12-14T01:19:03;3.80;;;3.40;;
10410;SDS011;5251;52.112;8.606;2023-12-14T01:21:30;4.03;;;3.63;;
10410;SDS011;5251;52.112;8.606;2023-12-14T01:23:56;3.90;;;3.47;;
10410;SDS011;5251;52.112;8.606;2023-12-14T01:26:22;4.07;;;3.67;;
10410;SDS011;5251;52.112;8.606;2023-12-14T01:28:48;4.25;;;3.55;;
10410;SDS011;5251;52.112;8.606;2023-12-14T01:31:13;4.15;;;3.42;;
10410;SDS011;5251;52.112;8.606;2023-12-14T01:33:39;3.78;;;3.33;;
10410;SDS011;5251;52.112;8.606;2023-12-14T01:36:05;4.65;;;3.80;;
10410;SDS011;5251;52.112;8.606;2023-12-14T01:38:32;4.10;;;3.70;;
10410;SDS011;5251;52.112;8.606;2023-12-14T01:40:57;3.50;;;3.20;;
10410;SDS011;5251;52.112;8.606;2023-12-14T01:43:24;3.70;;;3.30;;
10410;SDS011;5251;52.112;8.606;2023-12-14T01:45:49;3.35;;;3.05;;
10410;SDS011;5251;52.112;8.606;2023-12-14T01:48:15;3.72;;;3.30;;
10410;SDS011;5251;52.112;8.606;2023-12-14T01:50:41;3.75;;;3.38;;
10410;SDS011;5251;52.112;8.606;2023-12-14T01:53:06;4.03;;;3.15;;
10410;SDS011;5251;52.112;8.606;2023-12-14T01:55:32;3.67;;;3.08;;
10410;SDS011;5251;52.112;8.606;2023-12-14T01:57:58;3.33;;;2.97;;
10410;SDS011;5251;52.112;8.606;2023-12-14T02:00:30;3.67;;;3.30;;
10410;SDS011;5251;52.112;8.606;2023-12-14T02:03:04;3.95;;;3.47;;
10410;SDS011;5251;52.112;8.606;2023-12-14T02:05:30;3.45;;;3.15;;
10410;SDS011;5251;52.112;8.606;2023-12-14T02:07:56;4.13;;;3.72;;
10410;SDS011;5251;52.112;8.606;2023-12-14T02:10:22;4.03;;;3.50;;
10410;SDS011;5251;52.112;8.606;2023-12-14T02:12:48;4.35;;;3.80;;
10410;SDS011;5251;52.112;8.606;2023-12-14T02:15:13;4.32;;;3.90;;
10410;SDS011;5251;52.112;8.606;2023-12-14T02:17:39;5.18;;;4.00;;
10410;SDS011;5251;52.112;8.606;2023-12-14T02:20:05;4.75;;;3.97;;
10410;SDS011;5251;52.112;8.606;2023-12-14T02:22:35;5.03;;;4.15;;
10410;SDS011;5251;52.112;8.606;2023-12-14T02:25:16;4.63;;;4.13;;
10410;SDS011;5251;52.112;8.606;2023-12-14T02:27:42;4.97;;;4.30;;
10410;SDS011;5251;52.112;8.606;2023-12-14T02:30:08;4.80;;;4.38;;
10410;SDS011;5251;52.112;8.606;2023-12-14T02:32:35;4.88;;;4.22;;
10410;SDS011;5251;52.112;8.606;2023-12-14T02:35:00;5.88;;;4.60;;
10410;SDS011;5251;52.112;8.606;2023-12-14T02:37:27;5.32;;;4.70;;
10410;SDS011;5251;52.112;8.606;2023-12-14T02:39:53;6.15;;;4.85;;
10410;SDS011;5251;52.112;8.606;2023-12-14T02:42:18;6.03;;;4.63;;
10410;SDS011;5251;52.112;8.606;2023-12-14T02:44:44;6.00;;;5.00;;
10410;SDS011;5251;52.112;8.606;2023-12-14T02:47:10;5.22;;;4.63;;
10410;SDS011;5251;52.112;8.606;2023-12-14T02:49:35;6.43;;;4.95;;
10410;SDS011;5251;52.112;8.606;2023-12-14T02:52:01;6.43;;;5.50;;
10410;SDS011;5251;52.112;8.606;2023-12-14T02:54:26;5.78;;;5.18;;
10410;SDS011;5251;52.112;8.606;2023-12-14T02:56:52;5.57;;;5.05;;
10410;SDS011;5251;52.112;8.606;2023-12-14T02:59:17;5.75;;;5.10;;
10410;SDS011;5251;52.112;8.606;2023-12-14T03:01:43;5.82;;;4.93;;
10410;SDS011;5251;52.112;8.606;2023-12-14T03:04:09;5.22;;;4.72;;
10410;SDS011;5251;52.112;8.606;2023-12-14T03:06:34;6.57;;;4.82;;
10410;SDS011;5251;52.112;8.606;2023-12-14T03:09:00;6.00;;;5.15;;
10410;SDS011;5251;52.112;8.606;2023-12-14T03:11:25;6.00;;;4.70;;
10410;SDS011;5251;52.112;8.606;2023-12-14T03:13:51;6.28;;;5.30;;
10410;SDS011;5251;52.112;8.606;2023-12-14T03:16:18;5.90;;;5.03;;
10410;SDS011;5251;52.112;8.606;2023-12-14T03:18:44;5.75;;;5.03;;
10410;SDS011;5251;52.112;8.606;2023-12-14T03:21:09;6.65;;;5.10;;
10410;SDS011;5251;52.112;8.606;2023-12-14T03:23:35;6.28;;;5.35;;
10410;SDS011;5251;52.112;8.606;2023-12-14T03:26:01;6.05;;;5.07;;
10410;SDS011;5251;52.112;8.606;2023-12-14T03:28:27;6.82;;;4.93;;
10410;SDS011;5251;52.112;8.606;2023-12-14T03:30:53;7.55;;;5.20;;
10410;SDS011;5251;52.112;8.606;2023-12-14T03:33:18;5.68;;;5.10;;
10410;SDS011;5251;52.112;8.606;2023-12-14T03:35:44;6.28;;;5.43;;
10410;SDS011;5251;52.112;8.606;2023-12-14T03:38:13;6.35;;;5.32;;
10410;SDS011;5251;52.112;8.606;2023-12-14T03:40:38;5.72;;;5.07;;
10410;SDS011;5251;52.112;8.606;2023-12-14T03:43:04;5.97;;;5.38;;
10410;SDS011;5251;52.112;8.606;2023-12-14T03:45:30;6.55;;;5.32;;
10410;SDS011;5251;52.112;8.606;2023-12-14T03:47:56;7.35;;;5.60;;
10410;SDS011;5251;52.112;8.606;2023-12-14T03:50:22;6.95;;;6.10;;
10410;SDS011;5251;52.112;8.606;2023-12-14T03:52:47;6.90;;;6.20;;
10410;SDS011;5251;52.112;8.606;2023-12-14T03:55:13;7.55;;;6.13;;
10410;SDS011;5251;52.112;8.606;2023-12-14T03:57:40;8.80;;;6.47;;
10410;SDS011;5251;52.112;8.606;2023-12-14T04:00:07;8.60;;;6.68;;
10410;SDS011;5251;52.112;8.606;2023-12-14T04:02:35;7.43;;;6.53;;
10410;SDS011;5251;52.112;8.606;2023-12-14T04:05:01;7.97;;;6.60;;
10410;SDS011;5251;52.112;8.606;2023-12-14T04:07:26;8.18;;;6.78;;
10410;SDS011;5251;52.112;8.606;2023-12-14T04:09:52;8.45;;;6.95;;
10410;SDS011;5251;52.112;8.606;2023-12-14T04:12:18;7.60;;;6.32;;
10410;SDS011;5251;52.112;8.606;2023-12-14T04:14:43;7.72;;;6.43;;
10410;SDS011;5251;52.112;8.606;2023-12-14T04:17:10;9.02;;;6.82;;
10410;SDS011;5251;52.112;8.606;2023-12-14T04:19:38;8.52;;;6.47;;
10410;SDS011;5251;52.112;8.606;2023-12-14T04:22:04;6.90;;;6.07;;
10410;SDS011;5251;52.112;8.606;2023-12-14T04:24:30;7.68;;;6.70;;
10410;SDS011;5251;52.112;8.606;2023-12-14T04:26:55;9.57;;;7.32;;
10410;SDS011;5251;52.112;8.606;2023-12-14T04:29:21;8.85;;;7.00;;
10410;SDS011;5251;52.112;8.606;2023-12-14T04:31:47;9.15;;;7.20;;
10410;SDS011;5251;52.112;8.606;2023-12-14T04:34:13;9.20;;;7.50;;
10410;SDS011;5251;52.112;8.606;2023-12-14T04:36:41;8.82;;;7.10;;
10410;SDS011;5251;52.112;8.606;2023-12-14T04:39:07;9.45;;;7.28;;
10410;SDS011;5251;52.112;8.606;2023-12-14T04:41:33;8.10;;;6.65;;
10410;SDS011;5251;52.112;8.606;2023-12-14T04:43:58;9.00;;;7.00;;
10410;SDS011;5251;52.112;8.606;2023-12-14T04:46:24;7.53;;;6.32;;
10410;SDS011;5251;52.112;8.606;2023-12-14T04:48:49;9.32;;;7.00;;
10410;SDS011;5251;52.112;8.606;2023-12-14T04:51:15;9.05;;;6.70;;
10410;SDS011;5251;52.112;8.606;2023-12-14T04:53:40;8.13;;;6.85;;
10410;SDS011;5251;52.112;8.606;2023-12-14T04:56:09;9.02;;;7.13;;
10410;SDS011;5251;52.112;8.606;2023-12-14T04:58:36;7.50;;;6.78;;
10410;SDS011;5251;52.112;8.606;2023-12-14T05:01:03;8.25;;;6.65;;
10410;SDS011;5251;52.112;8.606;2023-12-14T05:03:29;7.07;;;6.35;;
10410;SDS011;5251;52.112;8.606;2023-12-14T05:05:54;7.47;;;6.60;;
10410;SDS011;5251;52.112;8.606;2023-12-14T05:08:20;6.80;;;6.10;;
10410;SDS011;5251;52.112;8.606;2023-12-14T05:10:45;6.07;;;5.47;;
10410;SDS011;5251;52.112;8.606;2023-12-14T05:13:11;6.90;;;5.70;;
10410;SDS011;5251;52.112;8.606;2023-12-14T05:15:36;6.68;;;6.03;;
10410;SDS011;5251;52.112;8.606;2023-12-14T05:18:02;7.50;;;6.03;;
10410;SDS011;5251;52.112;8.606;2023-12-14T05:20:28;6.20;;;5.60;;
10410;SDS011;5251;52.112;8.606;2023-12-14T05:22:54;6.15;;;4.90;;
10410;SDS011;5251;52.112;8.606;2023-12-14T05:25:20;7.65;;;5.38;;
10410;SDS011;5251;52.112;8.606;2023-12-14T05:27:46;5.68;;;4.97;;
10410;SDS011;5251;52.112;8.606;2023-12-14T05:30:12;5.63;;;5.03;;
10410;SDS011;5251;52.112;8.606;2023-12-14T05:32:38;5.68;;;5.07;;
10410;SDS011;5251;52.112;8.606;2023-12-14T05:35:03;5.22;;;4.72;;
10410;SDS011;5251;52.112;8.606;2023-12-14T05:37:29;5.43;;;4.93;;
10410;SDS011;5251;52.112;8.606;2023-12-14T05:39:56;5.32;;;4.82;;
10410;SDS011;5251;52.112;8.606;2023-12-14T05:42:21;5.50;;;4.95;;
10410;SDS011;5251;52.112;8.606;2023-12-14T05:44:47;5.68;;;4.78;;
10410;SDS011;5251;52.112;8.606;2023-12-14T05:47:12;5.60;;;5.10;;
10410;SDS011;5251;52.112;8.606;2023-12-14T05:49:42;5.95;;;4.80;;
10410;SDS011;5251;52.112;8.606;2023-12-14T05:52:08;5.55;;;5.05;;
10410;SDS011;5251;52.112;8.606;2023-12-14T05:54:35;6.00;;;5.40;;
10410;SDS011;5251;52.112;8.606;2023-12-14T05:57:04;6.75;;;5.95;;
10410;SDS011;5251;52.112;8.606;2023-12-14T05:59:30;7.43;;;5.90;;
10410;SDS011;5251;52.112;8.606;2023-12-14T06:01:57;7.88;;;6.53;;
10410;SDS011;5251;52.112;8.606;2023-12-14T06:04:24;6.25;;;5.65;;
10410;SDS011;5251;52.112;8.606;2023-12-14T06:06:50;7.55;;;6.75;;
10410;SDS011;5251;52.112;8.606;2023-12-14T06:09:16;7.70;;;6.78;;
10410;SDS011;5251;52.112;8.606;2023-12-14T06:11:44;6.97;;;6.28;;
10410;SDS011;5251;52.112;8.606;2023-12-14T06:14:09;7.78;;;6.93;;
10410;SDS011;5251;52.112;8.606;2023-12-14T06:16:35;8.20;;;6.80;;
10410;SDS011;5251;52.112;8.606;2023-12-14T06:19:01;8.40;;;6.38;;
10410;SDS011;5251;52.112;8.606;2023-12-14T06:21:26;6.68;;;6.05;;
10410;SDS011;5251;52.112;8.606;2023-12-14T06:23:54;7.03;;;6.22;;
10410;SDS011;5251;52.112;8.606;2023-12-14T06:26:24;7.20;;;6.10;;
10410;SDS011;5251;52.112;8.606;2023-12-14T06:28:49;7.15;;;6.00;;
10410;SDS011;5251;52.112;8.606;2023-12-14T06:31:15;6.57;;;5.88;;
10410;SDS011;5251;52.112;8.606;2023-12-14T06:33:42;6.93;;;6.10;;
10410;SDS011;5251;52.112;8.606;2023-12-14T06:36:08;7.30;;;6.00;;
10410;SDS011;5251;52.112;8.606;2023-12-14T06:38:34;9.43;;;6.30;;
10410;SDS011;5251;52.112;8.606;2023-12-14T06:41:03;7.72;;;5.97;;
10410;SDS011;5251;52.112;8.606;2023-12-14T06:43:28;7.05;;;6.35;;
10410;SDS011;5251;52.112;8.606;2023-12-14T06:45:54;7.72;;;6.10;;
10410;SDS011;5251;52.112;8.606;2023-12-14T06:48:20;6.70;;;6.00;;
10410;SDS011;5251;52.112;8.606;2023-12-14T06:50:45;7.82;;;6.32;;
10410;SDS011;5251;52.112;8.606;2023-12-14T06:53:11;6.60;;;5.88;;
10410;SDS011;5251;52.112;8.606;2023-12-14T06:55:36;6.28;;;5.65;;
10410;SDS011;5251;52.112;8.606;2023-12-14T06:58:02;6.88;;;6.03;;
10410;SDS011;5251;52.112;8.606;2023-12-14T07:00:28;6.95;;;6.25;;
10410;SDS011;5251;52.112;8.606;2023-12-14T07:02:56;6.95;;;5.88;;
10410;SDS011;5251;52.112;8.606;2023-12-14T07:05:22;7.95;;;6.30;;
10410;SDS011;5251;52.112;8.606;2023-12-14T07:07:48;7.55;;;6.75;;
10410;SDS011;5251;52.112;8.606;2023-12-14T07:10:13;9.10;;;7.00;;
10410;SDS011;5251;52.112;8.606;2023-12-14T07:12:39;7.88;;;7.07;;
10410;SDS011;5251;52.112;8.606;2023-12-14T07:15:05;7.30;;;6.60;;
10410;SDS011;5251;52.112;8.606;2023-12-14T07:17:31;7.28;;;6.57;;
10410;SDS011;5251;52.112;8.606;2023-12-14T07:19:56;7.60;;;6.65;;
10410;SDS011;5251;52.112;8.606;2023-12-14T07:22:22;7.57;;;6.50;;
10410;SDS011;5251;52.112;8.606;2023-12-14T07:24:47;7.03;;;6.25;;
10410;SDS011;5251;52.112;8.606;2023-12-14T07:27:13;7.05;;;6.35;;
10410;SDS011;5251;52.112;8.606;2023-12-14T07:29:39;7.28;;;6.00;;
10410;SDS011;5251;52.112;8.606;2023-12-14T07:32:04;6.60;;;5.90;;
10410;SDS011;5251;52.112;8.606;2023-12-14T07:34:30;7.38;;;6.68;;
10410;SDS011;5251;52.112;8.606;2023-12-14T07:36:56;8.07;;;6.53;;
10410;SDS011;5251;52.112;8.606;2023-12-14T07:39:21;6.40;;;5.80;;
10410;SDS011;5251;52.112;8.606;2023-12-14T07:41:47;5.78;;;5.28;;
10410;SDS011;5251;52.112;8.606;2023-12-14T07:44:12;7.15;;;5.20;;
10410;SDS011;5251;52.112;8.606;2023-12-14T07:46:38;6.07;;;4.93;;
10410;SDS011;5251;52.112;8.606;2023-12-14T07:49:06;5.53;;;4.50;;
10410;SDS011;5251;52.112;8.606;2023-12-14T07:51:32;5.20;;;4.45;;
10410;SDS011;5251;52.112;8.606;2023-12-14T07:53:58;5.78;;;4.60;;
10410;SDS011;5251;52.112;8.606;2023-12-14T07:56:23;4.80;;;4.00;;
10410;SDS011;5251;52.112;8.606;2023-12-14T07:58:52;4.50;;;4.10;;
10410;SDS011;5251;52.112;8.606;2023-12-14T08:01:18;5.65;;;5.07;;
10410;SDS011;5251;52.112;8.606;2023-12-14T08:03:44;6.75;;;5.57;;
10410;SDS011;5251;52.112;8.606;2023-12-14T08:06:09;5.50;;;4.80;;
10410;SDS011;5251;52.112;8.606;2023-12-14T08:08:35;5.07;;;4.40;;
10410;SDS011;5251;52.112;8.606;2023-12-14T08:11:02;4.47;;;4.05;;
10410;SDS011;5251;52.112;8.606;2023-12-14T08:13:28;4.57;;;4.18;;
10410;SDS011;5251;52.112;8.606;2023-12-14T08:15:54;4.90;;;4.40;;
10410;SDS011;5251;52.112;8.606;2023-12-14T08:18:20;5.05;;;4.55;;
10410;SDS011;5251;52.112;8.606;2023-12-14T08:20:46;7.38;;;5.60;;
10410;SDS011;5251;52.112;8.606;2023-12-14T08:23:11;5.40;;;4.63;;
10410;SDS011;5251;52.112;8.606;2023-12-14T08:25:37;5.47;;;4.97;;
10410;SDS011;5251;52.112;8.606;2023-12-14T08:28:02;5.93;;;5.32;;
10410;SDS011;5251;52.112;8.606;2023-12-14T08:30:28;5.97;;;4.90;;
10410;SDS011;5251;52.112;8.606;2023-12-14T08:32:54;5.30;;;4.80;;
10410;SDS011;5251;52.112;8.606;2023-12-14T08:35:20;5.85;;;5.18;;
10410;SDS011;5251;52.112;8.606;2023-12-14T08:37:45;5.43;;;4.93;;
10410;SDS011;5251;52.112;8.606;2023-12-14T08:40:11;5.15;;;4.72;;
10410;SDS011;5251;52.112;8.606;2023-12-14T08:42:37;4.97;;;4.50;;
10410;SDS011;5251;52.112;8.606;2023-12-14T08:45:03;5.03;;;4.30;;
10410;SDS011;5251;52.112;8.606;2023-12-14T08:47:28;4.40;;;4.00;;
10410;SDS011;5251;52.112;8.606;2023-12-14T08:49:54;4.70;;;4.30;;
10410;SDS011;5251;52.112;8.606;2023-12-14T08:52:20;4.80;;;4.40;;
10410;SDS011;5251;52.112;8.606;2023-12-14T08:54:45;4.75;;;4.30;;
10410;SDS011;5251;52.112;8.606;2023-12-14T08:57:11;4.60;;;4.20;;
10410;SDS011;5251;52.112;8.606;2023-12-14T08:59:37;5.13;;;4.55;;
10410;SDS011;5251;52.112;8.606;2023-12-14T09:02:02;5.30;;;4.80;;
10410;SDS011;5251;52.112;8.606;2023-12-14T09:04:29;5.75;;;4.80;;
10410;SDS011;5251;52.112;8.606;2023-12-14T09:06:54;5.50;;;5.00;;
10410;SDS011;5251;52.112;8.606;2023-12-14T09:09:20;5.80;;;5.30;;
10410;SDS011;5251;52.112;8.606;2023-12-14T09:11:46;5.97;;;5.47;;
10410;SDS011;5251;52.112;8.606;2023-12-14T09:14:11;5.80;;;5.20;;
10410;SDS011;5251;52.112;8.606;2023-12-14T09:16:37;5.47;;;4.97;;
10410;SDS011;5251;52.112;8.606;2023-12-14T09:19:02;5.60;;;5.10;;
10410;SDS011;5251;52.112;8.606;2023-12-14T09:21:28;5.70;;;5.20;;
10410;SDS011;5251;52.112;8.606;2023-12-14T09:23:54;5.22;;;4.82;;
10410;SDS011;5251;52.112;8.606;2023-12-14T09:26:19;5.57;;;5.05;;
10410;SDS011;5251;52.112;8.606;2023-12-14T09:28:45;5.95;;;5.40;;
10410;SDS011;5251;52.112;8.606;2023-12-14T09:31:11;5.88;;;5.38;;
10410;SDS011;5251;52.112;8.606;2023-12-14T09:33:36;5.90;;;5.40;;
10410;SDS011;5251;52.112;8.606;2023-12-14T09:36:02;6.07;;;5.45;;
10410;SDS011;5251;52.112;8.606;2023-12-14T09:38:28;5.90;;;5.40;;
10410;SDS011;5251;52.112;8.606;2023-12-14T09:40:53;6.03;;;5.53;;
10410;SDS011;5251;52.112;8.606;2023-12-14T09:43:19;6.40;;;5.80;;
10410;SDS011;5251;52.112;8.606;2023-12-14T09:45:46;6.13;;;5.55;;
10410;SDS011;5251;52.112;8.606;2023-12-14T09:48:14;6.43;;;5.82;;
10410;SDS011;5251;52.112;8.606;2023-12-14T09:50:40;5.90;;;5.30;;
10410;SDS011;5251;52.112;8.606;2023-12-14T09:53:07;6.30;;;5.70;;
10410;SDS011;5251;52.112;8.606;2023-12-14T09:55:33;6.82;;;6.22;;
10410;SDS011;5251;52.112;8.606;2023-12-14T09:57:59;6.60;;;6.00;;
10410;SDS011;5251;52.112;8.606;2023-12-14T10:00:34;6.55;;;5.85;;
10410;SDS011;5251;52.112;8.606;2023-12-14T10:05:50;6.90;;;6.20;;
10410;SDS011;5251;52.112;8.606;2023-12-14T10:08:16;7.05;;;6.35;;
10410;SDS011;5251;52.112;8.606;2023-12-14T10:10:43;7.80;;;7.00;;
10410;SDS011;5251;52.112;8.606;2023-12-14T10:13:09;7.50;;;6.60;;
10410;SDS011;5251;52.112;8.606;2023-12-14T10:15:42;7.53;;;6.80;;
10410;SDS011;5251;52.112;8.606;2023-12-14T10:18:13;6.78;;;6.18;;
10410;SDS011;5251;52.112;8.606;2023-12-14T10:20:52;6.82;;;6.22;;
10410;SDS011;5251;52.112;8.606;2023-12-14T10:23:18;7.30;;;6.57;;
10410;SDS011;5251;52.112;8.606;2023-12-14T10:25:44;6.70;;;6.10;;
10410;SDS011;5251;52.112;8.606;2023-12-14T10:28:14;6.60;;;5.90;;
10410;SDS011;5251;52.112;8.606;2023-12-14T10:30:40;6.60;;;5.60;;
10410;SDS011;5251;52.112;8.606;2023-12-14T10:33:06;4.93;;;4.53;;
10410;SDS011;5251;52.112;8.606;2023-12-14T10:35:31;5.13;;;4.70;;
10410;SDS011;5251;52.112;8.606;2023-12-14T10:37:58;6.00;;;5.00;;
10410;SDS011;5251;52.112;8.606;2023-12-14T10:40:30;5.80;;;5.30;;
10410;SDS011;5251;52.112;8.606;2023-12-14T10:42:59;6.82;;;5.28;;
10410;SDS011;5251;52.112;8.606;2023-12-14T10:45:27;5.82;;;5.32;;
10410;SDS011;5251;52.112;8.606;2023-12-14T10:47:58;5.82;;;5.10;;
10410;SDS011;5251;52.112;8.606;2023-12-14T10:50:26;5.68;;;5.13;;
10410;SDS011;5251;52.112;8.606;2023-12-14T10:52:55;5.90;;;5.40;;
10410;SDS011;5251;52.112;8.606;2023-12-14T10:55:27;6.10;;;5.50;;
10410;SDS011;5251;52.112;8.606;2023-12-14T10:58:02;5.57;;;5.07;;
10410;SDS011;5251;52.112;8.606;2023-12-14T11:00:28;6.05;;;5.25;;
10410;SDS011;5251;52.112;8.606;2023-12-14T11:02:54;5.22;;;4.72;;
10410;SDS011;5251;52.112;8.606;2023-12-14T11:05:21;5.00;;;4.53;;
10410;SDS011;5251;52.112;8.606;2023-12-14T11:07:54;5.07;;;4.57;;
10410;SDS011;5251;52.112;8.606;2023-12-14T11:10:36;4.97;;;4.22;;
10410;SDS011;5251;52.112;8.606;2023-12-14T11:13:06;4.38;;;3.97;;
10410;SDS011;5251;52.112;8.606;2023-12-14T11:15:38;4.50;;;4.10;;
10410;SDS011;5251;52.112;8.606;2023-12-14T11:23:12;4.53;;;4.13;;
10410;SDS011;5251;52.112;8.606;2023-12-14T11:25:41;4.53;;;4.13;;
10410;SDS011;5251;52.112;8.606;2023-12-14T11:28:07;3.70;;;3.40;;
10410;SDS011;5251;52.112;8.606;2023-12-14T11:30:33;4.03;;;3.70;;
10410;SDS011;5251;52.112;8.606;2023-12-14T11:33:02;4.10;;;3.72;;
10410;SDS011;5251;52.112;8.606;2023-12-14T11:35:29;3.70;;;3.40;;
10410;SDS011;5251;52.112;8.606;2023-12-14T11:37:57;3.80;;;3.50;;
10410;SDS011;5251;52.112;8.606;2023-12-14T11:40:25;4.05;;;3.50;;
10410;SDS011;5251;52.112;8.606;2023-12-14T11:43:00;3.88;;;3.58;;
10410;SDS011;5251;52.112;8.606;2023-12-14T11:45:31;3.67;;;3.38;;
10410;SDS011;5251;52.112;8.606;2023-12-14T11:47:57;4.20;;;3.80;;
10410;SDS011;5251;52.112;8.606;2023-12-14T11:50:23;4.00;;;3.70;;
10410;SDS011;5251;52.112;8.606;2023-12-14T11:52:49;3.65;;;3.35;;
10410;SDS011;5251;52.112;8.606;2023-12-14T11:55:14;3.65;;;3.35;;
10410;SDS011;5251;52.112;8.606;2023-12-14T11:57:49;3.70;;;3.40;;
10410;SDS011;5251;52.112;8.606;2023-12-14T12:00:15;4.00;;;3.70;;
10410;SDS011;5251;52.112;8.606;2023-12-14T12:02:42;3.90;;;3.60;;
10410;SDS011;5251;52.112;8.606;2023-12-14T12:05:08;5.65;;;3.80;;
10410;SDS011;5251;52.112;8.606;2023-12-14T12:07:38;3.95;;;3.65;;
10410;SDS011;5251;52.112;8.606;2023-12-14T12:10:04;3.70;;;3.40;;
10410;SDS011;5251;52.112;8.606;2023-12-14T12:12:32;3.40;;;3.10;;
10410;SDS011;5251;52.112;8.606;2023-12-14T12:14:59;4.07;;;3.67;;
10410;SDS011;5251;52.112;8.606;2023-12-14T12:17:24;3.70;;;3.40;;
10410;SDS011;5251;52.112;8.606;2023-12-14T12:19:51;3.55;;;3.25;;
10410;SDS011;5251;52.112;8.606;2023-12-14T12:22:16;4.28;;;3.88;;
10410;SDS011;5251;52.112;8.606;2023-12-14T12:24:42;4.20;;;3.80;;
10410;SDS011;5251;52.112;8.606;2023-12-14T12:27:08;3.90;;;3.60;;
10410;SDS011;5251;52.112;8.606;2023-12-14T12:29:34;3.78;;;3.47;;
10410;SDS011;5251;52.112;8.606;2023-12-14T12:31:59;4.40;;;4.00;;
10410;SDS011;5251;52.112;8.606;2023-12-14T12:34:25;4.50;;;3.55;;
10410;SDS011;5251;52.112;8.606;2023-12-14T12:36:51;3.88;;;3.50;;
10410;SDS011;5251;52.112;8.606;2023-12-14T12:39:16;3.83;;;3.53;;
10410;SDS011;5251;52.112;8.606;2023-12-14T12:41:42;3.88;;;3.42;;
10410;SDS011;5251;52.112;8.606;2023-12-14T12:44:08;3.50;;;3.20;;
10410;SDS011;5251;52.112;8.606;2023-12-14T12:46:37;3.63;;;3.33;;
10410;SDS011;5251;52.112;8.606;2023-12-14T12:49:03;3.95;;;3.55;;
10410;SDS011;5251;52.112;8.606;2023-12-14T12:51:30;3.85;;;3.55;;
10410;SDS011;5251;52.112;8.606;2023-12-14T12:53:57;4.30;;;3.88;;
10410;SDS011;5251;52.112;8.606;2023-12-14T12:56:25;5.28;;;4.88;;
10410;SDS011;5251;52.112;8.606;2023-12-14T12:58:53;3.95;;;3.65;;
10410;SDS011;5251;52.112;8.606;2023-12-14T13:01:20;3.25;;;3.00;;
10410;SDS011;5251;52.112;8.606;2023-12-14T13:03:51;3.55;;;3.25;;
10410;SDS011;5251;52.112;8.606;2023-12-14T13:06:23;3.20;;;2.90;;
10410;SDS011;5251;52.112;8.606;2023-12-14T13:08:50;2.90;;;2.70;;
10410;SDS011;5251;52.112;8.606;2023-12-14T13:11:16;3.35;;;2.30;;
10410;SDS011;5251;52.112;8.606;2023-12-14T13:13:42;2.75;;;2.55;;
10410;SDS011;5251;52.112;8.606;2023-12-14T13:16:09;3.00;;;2.70;;
10410;SDS011;5251;52.112;8.606;2023-12-14T13:18:35;2.53;;;2.33;;
10410;SDS011;5251;52.112;8.606;2023-12-14T13:21:01;2.60;;;2.38;;
10410;SDS011;5251;52.112;8.606;2023-12-14T13:23:27;2.75;;;2.55;;
10410;SDS011;5251;52.112;8.606;2023-12-14T13:25:52;2.40;;;2.20;;
10410;SDS011;5251;52.112;8.606;2023-12-14T13:28:18;2.72;;;2.10;;
10410;SDS011;5251;52.112;8.606;2023-12-14T13:30:44;2.63;;;2.42;;
10410;SDS011;5251;52.112;8.606;2023-12-14T13:33:09;2.30;;;2.10;;
10410;SDS011;5251;52.112;8.606;2023-12-14T13:35:37;2.85;;;2.40;;
10410;SDS011;5251;52.112;8.606;2023-12-14T13:38:03;2.50;;;2.30;;
10410;SDS011;5251;52.112;8.606;2023-12-14T13:40:28;2.85;;;2.17;;
10410;SDS011;5251;52.112;8.606;2023-12-14T13:42:54;2.55;;;2.35;;
10410;SDS011;5251;52.112;8.606;2023-12-14T13:45:24;2.95;;;2.53;;
10410;SDS011;5251;52.112;8.606;2023-12-14T13:47:50;2.60;;;2.40;;
10410;SDS011;5251;52.112;8.606;2023-12-14T13:50:16;2.90;;;2.53;;
10410;SDS011;5251;52.112;8.606;2023-12-14T13:52:42;2.92;;;2.70;;
10410;SDS011;5251;52.112;8.606;2023-12-14T13:55:08;2.90;;;2.70;;
10410;SDS011;5251;52.112;8.606;2023-12-14T13:57:34;2.78;;;2.58;;
10410;SDS011;5251;52.112;8.606;2023-12-14T13:59:59;3.13;;;2.78;;
10410;SDS011;5251;52.112;8.606;2023-12-14T14:02:25;3.10;;;2.80;;
10410;SDS011;5251;52.112;8.606;2023-12-14T14:04:53;3.22;;;2.92;;
10410;SDS011;5251;52.112;8.606;2023-12-14T14:07:19;3.00;;;2.70;;
10410;SDS011;5251;52.112;8.606;2023-12-14T14:09:45;3.40;;;3.10;;
10410;SDS011;5251;52.112;8.606;2023-12-14T14:12:10;3.35;;;3.05;;
10410;SDS011;5251;52.112;8.606;2023-12-14T14:14:36;3.80;;;3.33;;
10410;SDS011;5251;52.112;8.606;2023-12-14T14:17:02;3.55;;;3.25;;
10410;SDS011;5251;52.112;8.606;2023-12-14T14:19:27;3.40;;;3.10;;
10410;SDS011;5251;52.112;8.606;2023-12-14T14:21:53;3.30;;;3.00;;
10410;SDS011;5251;52.112;8.606;2023-12-14T14:24:18;3.63;;;3.22;;
10410;SDS011;5251;52.112;8.606;2023-12-14T14:26:44;3.28;;;2.97;;
10410;SDS011;5251;52.112;8.606;2023-12-14T14:29:10;4.25;;;3.08;;
10410;SDS011;5251;52.112;8.606;2023-12-14T14:31:36;3.30;;;3.00;;
10410;SDS011;5251;52.112;8.606;2023-12-14T14:34:02;3.33;;;3.03;;
10410;SDS011;5251;52.112;8.606;2023-12-14T14:36:28;3.25;;;2.95;;
10410;SDS011;5251;52.112;8.606;2023-12-14T14:38:53;3.40;;;2.95;;
10410;SDS011;5251;52.112;8.606;2023-12-14T14:41:21;3.38;;;3.05;;
10410;SDS011;5251;52.112;8.606;2023-12-14T14:43:47;3.95;;;3.58;;
10410;SDS011;5251;52.112;8.606;2023-12-14T14:46:13;3.97;;;3.58;;
10410;SDS011;5251;52.112;8.606;2023-12-14T14:48:39;3.72;;;3.22;;
10410;SDS011;5251;52.112;8.606;2023-12-14T14:51:04;5.07;;;3.50;;
10410;SDS011;5251;52.112;8.606;2023-12-14T14:53:30;3.65;;;3.35;;
10410;SDS011;5251;52.112;8.606;2023-12-14T14:55:56;3.65;;;3.35;;
10410;SDS011;5251;52.112;8.606;2023-12-14T14:58:22;4.70;;;3.50;;
10410;SDS011;5251;52.112;8.606;2023-12-14T15:00:48;3.80;;;3.45;;
10410;SDS011;5251;52.112;8.606;2023-12-14T15:03:13;3.75;;;3.45;;